createdAt,value
2022-11-26T00:02:29.815Z,6.07
2022-11-26T00:05:02.512Z,6.03
2022-11-26T00:07:35.793Z,5.98
2022-11-26T00:10:17.804Z,5.91
2022-11-26T00:12:50.390Z,5.88
2022-11-26T00:15:25.466Z,5.86
2022-11-26T00:17:58.216Z,5.84
2022-11-26T00:20:32.939Z,5.84
2022-11-26T00:23:05.848Z,5.82
2022-11-26T00:25:44.171Z,5.83
2022-11-26T00:28:32.068Z,5.83
2022-11-26T00:31:06.371Z,5.80
2022-11-26T00:33:38.868Z,5.76
2022-11-26T00:36:19.034Z,5.74
2022-11-26T00:38:54.890Z,5.74
2022-11-26T00:41:30.676Z,5.79
2022-11-26T00:44:03.393Z,5.84
2022-11-26T00:46:35.884Z,5.85
2022-11-26T00:49:08.319Z,5.88
2022-11-26T00:51:40.904Z,5.90
2022-11-26T00:54:16.327Z,5.87
2022-11-26T00:56:48.944Z,5.83
2022-11-26T00:59:24.347Z,5.83
2022-11-26T01:01:56.809Z,5.86
2022-11-26T01:04:29.274Z,5.89
2022-11-26T01:07:01.770Z,5.94
2022-11-26T01:09:34.309Z,6.02
2022-11-26T01:12:07.235Z,6.10
2022-11-26T01:14:38.258Z,6.17
2022-11-26T01:17:14.135Z,6.24
2022-11-26T01:19:46.556Z,6.31
2022-11-26T01:22:23.177Z,6.32
2022-11-26T01:24:55.721Z,6.37
2022-11-26T01:27:28.301Z,6.43
2022-11-26T01:30:00.727Z,6.47
2022-11-26T01:32:33.214Z,6.48
2022-11-26T01:35:06.240Z,6.41
2022-11-26T01:37:38.732Z,6.44
2022-11-26T01:40:30.642Z,6.50
2022-11-26T01:43:07.766Z,6.52
2022-11-26T01:45:40.403Z,6.55
2022-11-26T01:48:28.580Z,6.58
2022-11-26T01:51:06.340Z,6.58
2022-11-26T01:53:46.281Z,6.60
2022-11-26T01:56:28.171Z,6.62
2022-11-26T01:59:06.747Z,6.63
2022-11-26T02:01:39.758Z,6.63
2022-11-26T02:04:16.196Z,6.62
2022-11-26T02:06:50.887Z,6.59
2022-11-26T02:09:24.057Z,6.56
2022-11-26T02:11:56.888Z,6.58
2022-11-26T02:14:28.503Z,6.60
2022-11-26T02:17:17.830Z,6.59
2022-11-26T02:20:27.143Z,6.63
2022-11-26T02:23:32.709Z,6.68
2022-11-26T02:26:49.919Z,6.69
2022-11-26T02:29:27.224Z,6.70
2022-11-26T02:32:05.123Z,6.75
2022-11-26T02:34:42.930Z,6.82
2022-11-26T02:37:18.124Z,6.85
2022-11-26T02:39:50.674Z,6.85
2022-11-26T02:42:26.642Z,6.89
2022-11-26T02:45:00.676Z,6.94
2022-11-26T02:47:35.064Z,6.99
2022-11-26T02:50:12.209Z,7.06
2022-11-26T02:52:45.192Z,7.12
2022-11-26T02:55:19.176Z,7.21
2022-11-26T02:57:52.781Z,7.30
2022-11-26T03:00:26.005Z,7.37
2022-11-26T03:03:02.112Z,7.41
2022-11-26T03:05:37.420Z,7.36
2022-11-26T03:08:10.058Z,7.28
2022-11-26T03:10:42.402Z,7.27
2022-11-26T03:13:14.704Z,7.32
2022-11-26T03:15:47.200Z,7.38
2022-11-26T03:18:19.663Z,7.45
2022-11-26T03:20:52.623Z,7.50
2022-11-26T03:23:25.081Z,7.54
2022-11-26T03:25:57.508Z,7.61
2022-11-26T03:28:30.342Z,7.66
2022-11-26T03:31:00.976Z,7.68
2022-11-26T03:33:33.300Z,7.73
2022-11-26T03:36:05.858Z,7.77
2022-11-26T03:38:38.243Z,7.80
2022-11-26T03:41:10.593Z,7.77
2022-11-26T03:43:42.939Z,7.55
2022-11-26T03:46:15.329Z,7.41
2022-11-26T03:48:47.896Z,7.23
2022-11-26T03:51:20.389Z,6.97
2022-11-26T03:53:52.756Z,6.73
2022-11-26T03:56:25.169Z,6.59
2022-11-26T03:58:57.633Z,6.53
2022-11-26T04:01:30.041Z,6.47
2022-11-26T04:04:02.452Z,6.42
2022-11-26T04:06:34.996Z,6.42
2022-11-26T04:09:07.442Z,6.42
2022-11-26T04:11:39.722Z,6.41
2022-11-26T04:14:12.130Z,6.43
2022-11-26T04:16:44.716Z,6.46
2022-11-26T04:19:17.082Z,6.48
2022-11-26T04:21:49.443Z,6.44
2022-11-26T04:24:21.918Z,6.41
2022-11-26T04:26:54.421Z,6.41
2022-11-26T04:29:26.730Z,6.46
2022-11-26T04:31:59.179Z,6.54
2022-11-26T04:34:31.690Z,6.62
2022-11-26T04:37:03.999Z,6.69
2022-11-26T04:39:36.940Z,6.78
2022-11-26T04:42:09.360Z,6.90
2022-11-26T04:44:41.734Z,6.94
2022-11-26T04:47:14.142Z,6.94
2022-11-26T04:49:46.533Z,6.93
2022-11-26T04:52:18.943Z,6.94
2022-11-26T04:54:51.484Z,6.98
2022-11-26T04:57:23.856Z,7.04
2022-11-26T04:59:59.038Z,6.99
2022-11-26T05:02:31.541Z,6.92
2022-11-26T05:05:03.996Z,6.90
2022-11-26T05:07:36.584Z,6.91
2022-11-26T05:10:10.800Z,6.83
2022-11-26T05:12:43.109Z,6.69
2022-11-26T05:15:15.555Z,6.58
2022-11-26T05:17:47.894Z,6.51
2022-11-26T05:20:20.325Z,6.35
2022-11-26T05:22:52.812Z,6.18
2022-11-26T05:25:25.272Z,6.13
2022-11-26T05:27:57.715Z,6.17
2022-11-26T05:30:30.024Z,6.17
2022-11-26T05:33:02.385Z,6.15
2022-11-26T05:35:34.749Z,6.11
2022-11-26T05:38:07.052Z,5.94
2022-11-26T05:40:39.453Z,5.82
2022-11-26T05:43:11.892Z,5.82
2022-11-26T05:45:44.345Z,5.85
2022-11-26T05:48:16.774Z,5.91
2022-11-26T05:50:54.361Z,6.00
2022-11-26T05:53:27.061Z,6.11
2022-11-26T05:55:59.554Z,6.11
2022-11-26T05:58:32.101Z,6.01
2022-11-26T06:01:10.210Z,5.93
2022-11-26T06:03:42.735Z,5.78
2022-11-26T06:06:15.235Z,5.65
2022-11-26T06:08:47.598Z,5.60
2022-11-26T06:11:20.174Z,5.49
2022-11-26T06:13:52.522Z,5.41
2022-11-26T06:16:25.052Z,5.38
2022-11-26T06:18:57.741Z,5.35
2022-11-26T06:21:28.619Z,5.26
2022-11-26T06:24:01.189Z,5.21
2022-11-26T06:26:33.517Z,5.28
2022-11-26T06:29:06.082Z,5.36
2022-11-26T06:31:38.576Z,5.47
2022-11-26T06:34:11.043Z,5.58
2022-11-26T06:36:43.945Z,5.60
2022-11-26T06:39:14.586Z,5.64
2022-11-26T06:41:46.980Z,5.66
2022-11-26T06:44:19.314Z,5.75
2022-11-26T06:46:51.803Z,5.80
2022-11-26T06:49:24.122Z,5.83
2022-11-26T06:51:57.379Z,5.86
2022-11-26T06:54:29.740Z,5.87
2022-11-26T06:57:02.142Z,5.92
2022-11-26T06:59:34.705Z,6.03
2022-11-26T07:02:07.176Z,6.12
2022-11-26T07:04:39.773Z,6.20
2022-11-26T07:07:10.718Z,6.28
2022-11-26T07:09:43.488Z,6.35
2022-11-26T07:12:15.864Z,6.43
2022-11-26T07:14:48.645Z,6.50
2022-11-26T07:17:19.327Z,6.60
2022-11-26T07:19:52.027Z,6.60
2022-11-26T07:22:22.788Z,6.69
2022-11-26T07:24:55.169Z,6.77
2022-11-26T07:27:27.586Z,6.87
2022-11-26T07:29:59.903Z,6.96
2022-11-26T07:32:33.769Z,7.13
2022-11-26T07:35:06.744Z,7.22
2022-11-26T07:37:39.342Z,7.25
2022-11-26T07:40:12.964Z,7.20
2022-11-26T07:42:49.139Z,6.96
2022-11-26T07:45:24.366Z,6.67
2022-11-26T07:47:56.714Z,6.59
2022-11-26T07:50:29.236Z,6.58
2022-11-26T07:53:02.015Z,6.51
2022-11-26T07:55:33.287Z,6.47
2022-11-26T07:58:05.783Z,6.47
2022-11-26T08:00:38.265Z,6.55
2022-11-26T08:03:11.380Z,6.63
2022-11-26T08:05:45.532Z,6.69
2022-11-26T08:08:18.223Z,6.78
2022-11-26T08:10:51.433Z,6.83
2022-11-26T08:13:24.561Z,6.78
2022-11-26T08:15:57.405Z,6.87
2022-11-26T08:18:29.817Z,6.97
2022-11-26T08:21:02.251Z,7.12
2022-11-26T08:23:36.134Z,7.10
2022-11-26T08:26:23.748Z,6.98
2022-11-26T08:28:57.887Z,6.82
2022-11-26T08:31:30.707Z,6.79
2022-11-26T08:34:03.638Z,6.90
2022-11-26T08:36:36.194Z,6.97
2022-11-26T08:39:09.957Z,7.07
2022-11-26T08:41:41.560Z,7.16
2022-11-26T08:44:14.226Z,7.26
2022-11-26T08:46:46.624Z,7.29
2022-11-26T08:49:19.319Z,7.35
2022-11-26T08:51:50.182Z,7.47
2022-11-26T08:54:22.717Z,7.56
2022-11-26T08:56:55.311Z,7.48
2022-11-26T08:59:52.072Z,7.33
2022-11-26T09:02:27.984Z,7.33
2022-11-26T09:05:00.973Z,7.14
2022-11-26T09:07:34.314Z,6.98
2022-11-26T09:14:28.194Z,7.15
2022-11-26T09:17:02.417Z,7.27
2022-11-26T09:19:39.048Z,7.44
2022-11-26T09:22:14.065Z,7.66
2022-11-26T09:25:33.635Z,7.78
2022-11-26T09:28:22.538Z,7.90
2022-11-26T09:31:02.878Z,7.94
2022-11-26T09:33:38.036Z,7.95
2022-11-26T09:36:15.477Z,7.98
2022-11-26T09:38:52.105Z,8.05
2022-11-26T09:41:44.906Z,8.06
2022-11-26T09:44:29.487Z,8.18
2022-11-26T09:47:14.615Z,8.26
2022-11-26T09:50:05.007Z,8.31
2022-11-26T09:52:43.238Z,8.44
2022-11-26T09:55:22.255Z,8.67
2022-11-26T09:58:04.123Z,9.03
2022-11-26T10:00:42.250Z,9.48
2022-11-26T10:03:18.760Z,9.88
2022-11-26T10:06:02.205Z,10.16
2022-11-26T10:09:01.523Z,10.33
2022-11-26T10:11:39.127Z,10.51
2022-11-26T10:20:45.946Z,11.12
2022-11-26T10:23:26.733Z,11.06
2022-11-26T10:26:06.187Z,10.99
2022-11-26T10:28:45.037Z,10.61
2022-11-26T10:31:22.423Z,10.18
2022-11-26T10:34:02.159Z,9.81
2022-11-26T10:36:40.131Z,9.58
2022-11-26T10:39:17.367Z,9.33
2022-11-26T10:41:50.410Z,9.04
2022-11-26T10:44:35.022Z,8.89
2022-11-26T10:47:22.752Z,8.80
2022-11-26T10:49:56.169Z,8.60
2022-11-26T10:52:31.070Z,8.40
2022-11-26T10:55:25.194Z,8.24
2022-11-26T10:58:02.825Z,8.23
2022-11-26T11:01:01.276Z,8.34
2022-11-26T11:06:42.272Z,8.48
2022-11-26T11:09:31.161Z,8.55
2022-11-26T11:16:47.151Z,8.40
2022-11-26T11:19:28.221Z,8.33
2022-11-26T11:22:02.786Z,8.20
2022-11-26T11:24:38.777Z,8.15
2022-11-26T11:27:26.238Z,8.14
2022-11-26T11:30:03.077Z,8.25
2022-11-26T11:32:40.942Z,8.36
2022-11-26T11:35:25.310Z,8.51
2022-11-26T11:37:58.561Z,8.60
2022-11-26T11:40:44.989Z,8.69
2022-11-26T11:43:23.013Z,8.74
2022-11-26T11:52:30.615Z,8.86
2022-11-26T11:55:13.086Z,9.08
2022-11-26T11:58:08.450Z,9.29
2022-11-26T12:00:47.900Z,9.45
2022-11-26T12:03:44.684Z,9.46
2022-11-26T12:06:25.185Z,9.26
2022-11-26T12:16:40.471Z,9.24
2022-11-26T12:19:19.453Z,9.08
2022-11-26T12:21:56.059Z,8.90
2022-11-26T12:24:41.790Z,8.78
2022-11-26T12:27:24.340Z,8.82
2022-11-26T12:30:02.794Z,8.74
2022-11-26T12:32:40.602Z,8.64
2022-11-26T12:35:19.437Z,8.62
2022-11-26T12:37:53.547Z,8.50
2022-11-26T12:40:33.880Z,8.44
2022-11-26T12:43:11.764Z,8.35
2022-11-26T12:45:50.866Z,8.34
2022-11-26T12:48:37.966Z,8.36
2022-11-26T12:51:19.873Z,8.32
2022-11-26T12:53:55.655Z,8.27
2022-11-26T12:56:33.668Z,8.18
2022-11-26T12:59:09.382Z,8.11
2022-11-26T13:01:41.651Z,8.09
2022-11-26T13:04:36.809Z,8.03
2022-11-26T13:07:18.578Z,7.89
2022-11-26T13:10:05.093Z,7.78
2022-11-26T13:12:45.522Z,7.78
2022-11-26T13:15:23.199Z,7.76
2022-11-26T13:17:55.955Z,7.78
2022-11-26T13:20:44.769Z,7.86
2022-11-26T13:23:32.342Z,8.01
2022-11-26T13:26:24.580Z,8.13
2022-11-26T13:29:31.442Z,8.19
2022-11-26T13:32:30.113Z,8.19
2022-11-26T13:35:19.755Z,8.11
2022-11-26T13:38:06.762Z,7.91
2022-11-26T13:41:00.380Z,7.71
2022-11-26T13:44:12.038Z,7.70
2022-11-26T13:46:46.926Z,7.74
2022-11-26T13:49:21.814Z,7.68
2022-11-26T13:51:57.339Z,7.70
2022-11-26T13:54:33.008Z,7.71
2022-11-26T13:57:08.459Z,7.70
2022-11-26T13:59:48.321Z,7.72
2022-11-26T14:02:44.571Z,7.73
2022-11-26T14:05:18.785Z,7.63
2022-11-26T14:07:51.275Z,7.61
2022-11-26T14:10:38.917Z,7.61
2022-11-26T14:13:18.451Z,7.54
2022-11-26T14:16:00.662Z,7.43
2022-11-26T14:19:06.270Z,7.22
2022-11-26T14:22:03.869Z,7.11
2022-11-26T14:24:57.815Z,7.13
2022-11-26T14:27:32.728Z,7.16
2022-11-26T14:30:21.766Z,7.18
2022-11-26T14:33:09.924Z,7.20
2022-11-26T14:35:43.409Z,7.21
2022-11-26T14:38:28.416Z,7.21
2022-11-26T14:41:02.223Z,7.20
2022-11-26T14:43:34.432Z,7.21
2022-11-26T14:46:10.806Z,7.21
2022-11-26T14:48:47.624Z,7.21
2022-11-26T14:51:25.186Z,7.20
2022-11-26T14:53:58.660Z,7.15
2022-11-26T14:56:32.356Z,7.11
2022-11-26T14:59:08.502Z,7.05
2022-11-26T15:01:46.874Z,6.96
2022-11-26T15:04:27.217Z,6.89
2022-11-26T15:07:00.666Z,6.79
2022-11-26T15:09:33.192Z,6.60
2022-11-26T15:12:09.595Z,6.51
2022-11-26T15:14:46.779Z,6.44
2022-11-26T15:17:21.244Z,6.39
2022-11-26T15:19:54.258Z,6.41
2022-11-26T15:22:31.852Z,6.42
2022-11-26T15:25:04.665Z,6.42
2022-11-26T15:27:40.989Z,6.47
2022-11-26T15:30:22.650Z,6.35
2022-11-26T15:33:01.605Z,6.24
2022-11-26T15:35:36.637Z,6.21
2022-11-26T15:38:16.856Z,6.29
2022-11-26T15:40:50.797Z,6.32
2022-11-26T15:43:27.896Z,6.29
2022-11-26T15:46:06.006Z,6.27
2022-11-26T15:48:52.027Z,6.30
2022-11-26T15:51:34.967Z,6.28
2022-11-26T15:54:24.152Z,6.22
2022-11-26T15:57:00.124Z,6.12
2022-11-26T15:59:43.237Z,6.09
2022-11-26T16:02:27.062Z,5.98
2022-11-26T16:05:00.517Z,5.86
2022-11-26T16:07:34.353Z,5.87
2022-11-26T16:10:26.692Z,5.86
2022-11-26T16:13:35.443Z,5.96
2022-11-26T16:16:16.213Z,5.90
2022-11-26T16:18:57.296Z,5.88
2022-11-26T16:21:31.360Z,5.91
2022-11-26T16:24:07.460Z,5.87
2022-11-26T16:26:59.101Z,5.78
2022-11-26T16:29:37.137Z,5.76
2022-11-26T16:32:09.520Z,5.67
2022-11-26T16:34:46.965Z,5.61
2022-11-26T16:37:24.473Z,5.66
2022-11-26T16:40:06.175Z,5.70
2022-11-26T16:42:41.407Z,5.75
2022-11-26T16:45:23.809Z,5.74
2022-11-26T16:47:57.385Z,5.65
2022-11-26T16:50:30.921Z,5.65
2022-11-26T16:53:07.383Z,5.64
2022-11-26T16:55:40.504Z,5.54
2022-11-26T16:58:21.340Z,5.43
2022-11-26T17:00:53.882Z,5.37
2022-11-26T17:06:31.040Z,5.47
2022-11-26T17:09:04.282Z,5.52
2022-11-26T17:11:41.156Z,5.61
2022-11-26T17:14:21.745Z,5.67
2022-11-26T17:17:48.596Z,5.77
2022-11-26T17:20:46.597Z,5.99
2022-11-26T17:23:43.868Z,6.10
2022-11-26T17:26:25.649Z,6.23
2022-11-26T17:30:33.960Z,6.33
2022-11-26T17:36:55.637Z,6.43
2022-11-26T17:43:35.349Z,6.57
2022-11-26T17:46:20.262Z,6.58
2022-11-26T17:49:10.401Z,6.55
2022-11-26T17:52:19.584Z,6.51
2022-11-26T17:55:32.282Z,6.44
2022-11-26T17:58:07.448Z,6.40
2022-11-26T18:00:53.852Z,6.31
2022-11-26T18:03:37.595Z,6.18
2022-11-26T18:06:16.282Z,6.18
2022-11-26T18:08:50.324Z,6.23
2022-11-26T18:11:54.481Z,6.23
2022-11-26T18:14:42.081Z,6.22
2022-11-26T18:28:24.293Z,7.07
2022-11-26T18:30:59.943Z,7.03
2022-11-26T18:34:06.567Z,6.99
2022-11-26T18:36:43.635Z,6.95
2022-11-26T18:39:43.179Z,6.96
2022-11-26T18:42:41.279Z,6.91
2022-11-26T18:45:17.119Z,6.82
2022-11-26T18:47:52.361Z,6.79
2022-11-26T18:59:35.874Z,6.95
2022-11-26T19:02:12.819Z,7.02
2022-11-26T19:04:45.893Z,6.91
2022-11-26T19:07:18.629Z,6.78
2022-11-26T19:09:56.388Z,6.73
2022-11-26T19:12:48.770Z,6.72
2022-11-26T19:16:11.595Z,6.76
2022-11-26T19:19:16.483Z,6.79
2022-11-26T19:22:01.442Z,6.80
2022-11-26T19:24:34.504Z,6.80
2022-11-26T19:27:07.164Z,6.74
2022-11-26T19:29:43.982Z,6.71
2022-11-26T19:32:28.206Z,6.76
2022-11-26T19:35:12.816Z,6.78
2022-11-26T19:38:05.986Z,6.76
2022-11-26T19:40:51.240Z,6.78
2022-11-26T19:43:24.435Z,6.81
2022-11-26T19:46:08.827Z,6.80
2022-11-26T19:48:44.051Z,6.86
2022-11-26T19:51:55.642Z,6.89
2022-11-26T19:54:36.786Z,6.99
2022-11-26T19:57:10.407Z,7.08
2022-11-26T19:59:47.662Z,7.13
2022-11-26T20:02:21.966Z,7.18
2022-11-26T20:05:02.453Z,7.26
2022-11-26T20:07:43.615Z,7.33
2022-11-26T20:10:21.070Z,7.39
2022-11-26T20:12:58.840Z,7.43
2022-11-26T20:15:33.469Z,7.47
2022-11-26T20:18:09.915Z,7.49
2022-11-26T20:20:43.763Z,7.43
2022-11-26T20:23:22.655Z,7.41
2022-11-26T20:26:01.412Z,7.44
2022-11-26T20:28:40.041Z,7.50
2022-11-26T20:31:23.290Z,7.53
2022-11-26T20:34:11.887Z,7.58
2022-11-26T20:36:55.677Z,7.61
2022-11-26T20:39:51.260Z,7.56
2022-11-26T20:42:56.460Z,7.52
2022-11-26T20:45:35.494Z,7.53
2022-11-26T20:48:08.268Z,7.58
2022-11-26T20:50:40.944Z,7.61
2022-11-26T20:53:14.097Z,7.62
2022-11-26T20:55:56.687Z,7.64
2022-11-26T20:58:30.760Z,7.63
2022-11-26T21:01:03.878Z,7.60
2022-11-26T21:03:46.273Z,7.55
2022-11-26T21:06:29.044Z,7.53
2022-11-26T21:09:09.464Z,7.55
2022-11-26T21:11:43.143Z,7.55
2022-11-26T21:14:16.403Z,7.52
2022-11-26T21:16:49.677Z,7.49
2022-11-26T21:19:22.424Z,7.46
2022-11-26T21:21:54.838Z,7.48
2022-11-26T21:24:27.733Z,7.53
2022-11-26T21:27:00.413Z,7.60
2022-11-26T21:29:32.241Z,7.62
2022-11-26T21:32:09.992Z,7.59
2022-11-26T21:34:49.130Z,7.59
2022-11-26T21:37:29.462Z,7.63
2022-11-26T21:40:02.055Z,7.67
2022-11-26T21:42:38.006Z,7.65
2022-11-26T21:45:12.137Z,7.65
2022-11-26T21:47:45.420Z,7.67
2022-11-26T21:50:17.668Z,7.68
2022-11-26T21:52:50.037Z,7.72
2022-11-26T21:55:22.856Z,7.78
2022-11-26T21:57:55.320Z,7.83
2022-11-26T22:00:28.476Z,7.82
2022-11-26T22:03:11.554Z,7.84
2022-11-26T22:06:05.877Z,7.80
2022-11-26T22:09:03.749Z,7.79
2022-11-26T22:12:31.213Z,7.82
2022-11-26T22:15:24.737Z,7.83
2022-11-26T22:17:58.713Z,7.79
2022-11-26T22:21:28.118Z,7.78
2022-11-26T22:24:24.031Z,7.84
2022-11-26T22:27:05.925Z,7.88
2022-11-26T22:29:38.937Z,7.81
2022-11-26T22:32:12.198Z,7.76
2022-11-26T22:34:44.799Z,7.70
2022-11-26T22:37:17.180Z,7.65
2022-11-26T22:39:53.832Z,7.63
2022-11-26T22:42:27.940Z,7.64
2022-11-26T22:45:03.452Z,7.62
2022-11-26T22:47:36.457Z,7.63
2022-11-26T22:50:11.330Z,7.68
2022-11-26T22:52:44.781Z,7.76
2022-11-26T22:55:18.082Z,7.82
2022-11-26T22:57:55.214Z,7.86
2022-11-26T23:00:49.760Z,7.88
2022-11-26T23:03:41.264Z,7.95
2022-11-26T23:06:30.839Z,8.01
2022-11-26T23:09:04.674Z,8.03
2022-11-26T23:11:38.974Z,8.04
2022-11-26T23:14:12.438Z,8.06
2022-11-26T23:16:45.704Z,8.09
2022-11-26T23:19:19.676Z,8.12
2022-11-26T23:21:52.345Z,8.14
2022-11-26T23:24:23.197Z,8.15
2022-11-26T23:26:55.609Z,8.13
2022-11-26T23:29:28.072Z,8.14
2022-11-26T23:32:00.584Z,8.19
2022-11-26T23:34:33.233Z,8.23
2022-11-26T23:37:05.467Z,8.19
2022-11-26T23:39:38.194Z,8.09
2022-11-26T23:42:10.684Z,7.98
2022-11-26T23:44:42.981Z,7.96
2022-11-26T23:47:15.356Z,7.96
2022-11-26T23:49:47.785Z,7.91
2022-11-26T23:52:20.265Z,7.88
2022-11-26T23:54:52.552Z,7.82
2022-11-26T23:57:24.898Z,7.77
2022-11-26T23:59:57.243Z,7.73
